Time,TemperatureF,DewpointF,PressureIn,WindDirection,WindDirectionDegrees,WindSpeedMPH,WindSpeedGustMPH,Humidity,HourlyPrecipIn,Conditions,Clouds,dailyrainin,SoftwareType,DateUTC
2013-03-09 00:00:00,35.9,26.7,30.19,WNW,290,0.0,3.0,69,0.00,,,0.00,LWC V2.11 B50,2013-03-09 05:00:00,
2013-03-09 00:05:00,35.7,26.5,30.19,WNW,292,0.0,4.0,69,0.00,,,0.00,LWC V2.11 B50,2013-03-09 05:05:00,
2013-03-09 00:10:00,35.8,26.6,30.18,WNW,299,0.0,1.0,69,0.00,,,0.00,LWC V2.11 B50,2013-03-09 05:10:00,
2013-03-09 00:15:00,35.8,26.6,30.18,WNW,301,1.0,1.0,69,0.00,,,0.00,LWC V2.11 B50,2013-03-09 05:15:00,
2013-03-09 00:20:00,35.7,26.5,30.18,WNW,299,0.0,1.0,69,0.00,,,0.00,LWC V2.11 B50,2013-03-09 05:20:00,
2013-03-09 00:25:00,35.6,26.5,30.18,WNW,296,0.0,5.0,69,0.00,,,0.00,LWC V2.11 B50,2013-03-09 05:25:00,
2013-03-09 00:30:00,35.4,26.3,30.18,WNW,297,0.0,0.0,69,0.00,,,0.00,LWC V2.11 B50,2013-03-09 05:30:00,
2013-03-09 00:35:00,35.3,26.5,30.18,West,271,0.0,0.0,70,0.00,,,0.00,LWC V2.11 B50,2013-03-09 05:35:00,
2013-03-09 00:40:00,35.2,26.4,30.18,West,271,0.0,0.0,70,0.00,,,0.00,LWC V2.11 B50,2013-03-09 05:40:00,
2013-03-09 00:45:00,35.1,26.3,30.18,West,276,1.0,3.0,70,0.00,,,0.00,LWC V2.11 B50,2013-03-09 05:45:00,
2013-03-09 00:50:00,35.1,26.0,30.19,WNW,301,0.0,2.0,69,0.00,,,0.00,LWC V2.11 B50,2013-03-09 05:50:00,
2013-03-09 00:55:00,35.1,26.3,30.19,WNW,296,2.0,4.0,70,0.00,,,0.00,LWC V2.11 B50,2013-03-09 05:55:00,
2013-03-09 01:00:00,35.0,26.2,30.18,WNW,298,0.0,0.0,70,0.00,,,0.00,LWC V2.11 B50,2013-03-09 06:00:00,
2013-03-09 01:05:00,34.9,25.8,30.19,WNW,297,0.0,0.0,69,0.00,,,0.00,LWC V2.11 B50,2013-03-09 06:05:00,
2013-03-09 01:10:00,34.9,26.1,30.19,WNW,302,0.0,0.0,70,0.00,,,0.00,LWC V2.11 B50,2013-03-09 06:10:00,
2013-03-09 01:15:00,34.7,25.9,30.19,NW,317,0.0,0.0,70,0.00,,,0.00,LWC V2.11 B50,2013-03-09 06:15:00,
2013-03-09 01:20:00,34.7,25.9,30.19,WNW,300,0.0,4.0,70,0.00,,,0.00,LWC V2.11 B50,2013-03-09 06:20:00,
2013-03-09 01:25:00,34.7,25.6,30.19,WNW,296,0.0,0.0,69,0.00,,,0.00,LWC V2.11 B50,2013-03-09 06:25:00,
2013-03-09 01:30:00,34.7,25.6,30.19,West,280,0.0,0.0,69,0.00,,,0.00,LWC V2.11 B50,2013-03-09 06:30:00,
2013-03-09 01:35:00,34.6,25.5,30.19,WNW,288,2.0,3.0,69,0.00,,,0.00,LWC V2.11 B50,2013-03-09 06:35:00,
2013-03-09 01:40:00,34.6,25.8,30.19,WNW,288,0.0,0.0,70,0.00,,,0.00,LWC V2.11 B50,2013-03-09 06:40:00,
2013-03-09 01:45:00,34.5,25.7,30.18,WNW,289,0.0,0.0,70,0.00,,,0.00,LWC V2.11 B50,2013-03-09 06:45:00,
2013-03-09 01:50:00,34.3,25.5,30.18,WNW,288,0.0,0.0,70,0.00,,,0.00,LWC V2.11 B50,2013-03-09 06:50:00,
2013-03-09 01:52:00,34.3,25.5,30.18,West,271,2.0,2.0,70,0.00,,,0.00,LWC V2.11 B50,2013-03-09 06:52:00,
2013-03-09 01:57:00,34.2,25.5,30.18,WNW,283,0.0,3.0,70,0.00,,,0.00,LWC V2.11 B50,2013-03-09 06:57:00,
2013-03-09 02:02:00,34.2,25.5,30.18,WNW,283,0.0,0.0,70,0.00,,,0.00,LWC V2.11 B50,2013-03-09 07:02:00,
2013-03-09 02:07:00,34.0,25.3,30.18,WNW,283,0.0,0.0,70,0.00,,,0.00,LWC V2.11 B50,2013-03-09 07:07:00,
2013-03-09 02:12:00,33.9,25.2,30.18,WNW,287,0.0,3.0,70,0.00,,,0.00,LWC V2.11 B50,2013-03-09 07:12:00,
2013-03-09 02:17:00,33.8,25.4,30.17,WNW,287,0.0,0.0,71,0.00,,,0.00,LWC V2.11 B50,2013-03-09 07:17:00,
2013-03-09 02:22:00,33.8,25.4,30.17,WNW,287,0.0,0.0,71,0.00,,,0.00,LWC V2.11 B50,2013-03-09 07:22:00,
2013-03-09 02:27:00,33.8,25.1,30.17,West,266,0.0,0.0,70,0.00,,,0.00,LWC V2.11 B50,2013-03-09 07:27:00,
2013-03-09 02:32:00,33.8,25.1,30.17,West,277,0.0,0.0,70,0.00,,,0.00,LWC V2.11 B50,2013-03-09 07:32:00,
2013-03-09 02:37:00,33.8,25.1,30.17,West,278,2.0,2.0,70,0.00,,,0.00,LWC V2.11 B50,2013-03-09 07:37:00,
2013-03-09 02:42:00,33.9,25.2,30.17,West,278,0.0,0.0,70,0.00,,,0.00,LWC V2.11 B50,2013-03-09 07:42:00,
2013-03-09 02:47:00,33.9,25.2,30.17,West,278,0.0,0.0,70,0.00,,,0.00,LWC V2.11 B50,2013-03-09 07:47:00,
2013-03-09 02:52:00,33.8,25.1,30.17,West,280,0.0,0.0,70,0.00,,,0.00,LWC V2.11 B50,2013-03-09 07:52:00,
2013-03-09 02:57:00,33.9,25.2,30.16,WNW,296,4.0,9.0,70,0.00,,,0.00,LWC V2.11 B50,2013-03-09 07:57:00,
2013-03-09 03:02:00,34.0,24.9,30.16,WNW,292,0.0,0.0,69,0.00,,,0.00,LWC V2.11 B50,2013-03-09 08:02:00,
2013-03-09 03:07:00,34.0,24.9,30.17,NW,304,3.0,3.0,69,0.00,,,0.00,LWC V2.11 B50,2013-03-09 08:07:00,
2013-03-09 03:12:00,34.1,25.0,30.16,NW,313,0.0,4.0,69,0.00,,,0.00,LWC V2.11 B50,2013-03-09 08:12:00,
2013-03-09 03:17:00,34.1,25.0,30.17,NW,308,0.0,0.0,69,0.00,,,0.00,LWC V2.11 B50,2013-03-09 08:17:00,
2013-03-09 03:22:00,34.0,24.9,30.16,WNW,284,0.0,0.0,69,0.00,,,0.00,LWC V2.11 B50,2013-03-09 08:22:00,
2013-03-09 03:27:00,33.9,24.8,30.16,WNW,285,2.0,2.0,69,0.00,,,0.00,LWC V2.11 B50,2013-03-09 08:27:00,
2013-03-09 03:32:00,33.8,24.7,30.16,WNW,290,0.0,0.0,69,0.00,,,0.00,LWC V2.11 B50,2013-03-09 08:32:00,
2013-03-09 03:37:00,33.7,24.6,30.16,WNW,288,0.0,2.0,69,0.00,,,0.00,LWC V2.11 B50,2013-03-09 08:37:00,
2013-03-09 03:42:00,33.6,24.5,30.16,WNW,288,0.0,0.0,69,0.00,,,0.00,LWC V2.11 B50,2013-03-09 08:42:00,
2013-03-09 03:47:00,33.4,24.3,30.16,WNW,288,0.0,0.0,69,0.00,,,0.00,LWC V2.11 B50,2013-03-09 08:47:00,
2013-03-09 03:52:00,33.2,24.5,30.17,WNW,287,0.0,0.0,70,0.00,,,0.00,LWC V2.11 B50,2013-03-09 08:52:00,
2013-03-09 03:57:00,33.1,24.4,30.18,WNW,288,0.0,0.0,70,0.00,,,0.00,LWC V2.11 B50,2013-03-09 08:57:00,
2013-03-09 04:02:00,33.2,24.5,30.18,WNW,289,0.0,3.0,70,0.00,,,0.00,LWC V2.11 B50,2013-03-09 09:02:00,
2013-03-09 04:07:00,33.3,24.6,30.18,WNW,291,0.0,0.0,70,0.00,,,0.00,LWC V2.11 B50,2013-03-09 09:07:00,
2013-03-09 04:12:00,33.4,24.7,30.18,WNW,302,0.0,2.0,70,0.00,,,0.00,LWC V2.11 B50,2013-03-09 09:12:00,
2013-03-09 04:17:00,33.4,24.7,30.18,WNW,302,0.0,0.0,70,0.00,,,0.00,LWC V2.11 B50,2013-03-09 09:17:00,
2013-03-09 04:22:00,33.3,24.6,30.18,WNW,290,0.0,0.0,70,0.00,,,0.00,LWC V2.11 B50,2013-03-09 09:22:00,
2013-03-09 04:27:00,33.2,24.5,30.18,WNW,291,0.0,0.0,70,0.00,,,0.00,LWC V2.11 B50,2013-03-09 09:27:00,
2013-03-09 04:32:00,33.2,24.5,30.18,WNW,291,0.0,0.0,70,0.00,,,0.00,LWC V2.11 B50,2013-03-09 09:32:00,
2013-03-09 04:37:00,33.1,24.4,30.19,WNW,289,6.0,6.0,70,0.00,,,0.00,LWC V2.11 B50,2013-03-09 09:37:00,
2013-03-09 04:42:00,33.1,24.4,30.19,WNW,299,3.0,5.0,70,0.00,,,0.00,LWC V2.11 B50,2013-03-09 09:42:00,
2013-03-09 04:47:00,33.2,24.5,30.19,WNW,296,0.0,0.0,70,0.00,,,0.00,LWC V2.11 B50,2013-03-09 09:47:00,
2013-03-09 04:52:00,33.1,24.4,30.19,WNW,297,0.0,0.0,70,0.00,,,0.00,LWC V2.11 B50,2013-03-09 09:52:00,
2013-03-09 04:57:00,33.1,24.4,30.19,WNW,297,0.0,0.0,70,0.00,,,0.00,LWC V2.11 B50,2013-03-09 09:57:00,
2013-03-09 05:02:00,33.0,24.3,30.20,WNW,290,0.0,2.0,70,0.00,,,0.00,LWC V2.11 B50,2013-03-09 10:02:00,
2013-03-09 05:07:00,32.9,24.2,30.20,WNW,291,0.0,2.0,70,0.00,,,0.00,LWC V2.11 B50,2013-03-09 10:07:00,
2013-03-09 05:12:00,32.8,24.1,30.20,WNW,291,0.0,0.0,70,0.00,,,0.00,LWC V2.11 B50,2013-03-09 10:12:00,
2013-03-09 05:17:00,32.7,24.4,30.20,WNW,291,0.0,0.0,71,0.00,,,0.00,LWC V2.11 B50,2013-03-09 10:17:00,
2013-03-09 05:22:00,32.5,24.2,30.20,WNW,291,0.0,0.0,71,0.00,,,0.00,LWC V2.11 B50,2013-03-09 10:22:00,
2013-03-09 05:27:00,32.3,24.0,30.20,WNW,291,0.0,0.0,71,0.00,,,0.00,LWC V2.11 B50,2013-03-09 10:27:00,
2013-03-09 05:32:00,32.2,24.2,30.21,WNW,291,0.0,0.0,72,0.00,,,0.00,LWC V2.11 B50,2013-03-09 10:32:00,
2013-03-09 05:37:00,32.2,24.2,30.20,WNW,291,0.0,0.0,72,0.00,,,0.00,LWC V2.11 B50,2013-03-09 10:37:00,
2013-03-09 05:42:00,32.1,24.1,30.21,WNW,291,0.0,0.0,72,0.00,,,0.00,LWC V2.11 B50,2013-03-09 10:42:00,
2013-03-09 05:47:00,32.1,24.1,30.21,WNW,291,0.0,0.0,72,0.00,,,0.00,LWC V2.11 B50,2013-03-09 10:47:00,
2013-03-09 05:52:00,32.1,24.1,30.21,WNW,294,0.0,0.0,72,0.00,,,0.00,LWC V2.11 B50,2013-03-09 10:52:00,
2013-03-09 05:57:00,32.1,24.1,30.22,WNW,294,0.0,0.0,72,0.00,,,0.00,LWC V2.11 B50,2013-03-09 10:57:00,
2013-03-09 06:02:00,32.0,24.0,30.22,WNW,294,0.0,3.0,72,0.00,,,0.00,LWC V2.11 B50,2013-03-09 11:02:00,
2013-03-09 06:07:00,32.2,24.2,30.21,WNW,292,0.0,0.0,72,0.00,,,0.00,LWC V2.11 B50,2013-03-09 11:07:00,
2013-03-09 06:12:00,32.1,24.1,30.22,WNW,292,0.0,0.0,72,0.00,,,0.00,LWC V2.11 B50,2013-03-09 11:12:00,
2013-03-09 06:17:00,32.0,24.0,30.22,WNW,292,0.0,0.0,72,0.00,,,0.00,LWC V2.11 B50,2013-03-09 11:17:00,
2013-03-09 06:22:00,31.8,23.8,30.22,WNW,292,0.0,0.0,72,0.00,,,0.00,LWC V2.11 B50,2013-03-09 11:22:00,
2013-03-09 06:27:00,31.8,23.8,30.22,WNW,292,0.0,0.0,72,0.00,,,0.00,LWC V2.11 B50,2013-03-09 11:27:00,
2013-03-09 06:32:00,31.8,23.8,30.22,WNW,292,0.0,0.0,72,0.00,,,0.00,LWC V2.11 B50,2013-03-09 11:32:00,
2013-03-09 06:37:00,31.9,23.9,30.22,WNW,298,3.0,5.0,72,0.00,,,0.00,LWC V2.11 B50,2013-03-09 11:37:00,
2013-03-09 06:42:00,32.1,24.1,30.22,WNW,295,0.0,0.0,72,0.00,,,0.00,LWC V2.11 B50,2013-03-09 11:42:00,
2013-03-09 06:47:00,32.3,24.3,30.22,West,279,0.0,0.0,72,0.00,,,0.00,LWC V2.11 B50,2013-03-09 11:47:00,
2013-03-09 06:52:00,32.5,24.5,30.22,WNW,286,0.0,4.0,72,0.00,,,0.00,LWC V2.11 B50,2013-03-09 11:52:00,
2013-03-09 06:57:00,32.8,24.4,30.22,WNW,285,0.0,4.0,71,0.00,,,0.00,LWC V2.11 B50,2013-03-09 11:57:00,
2013-03-09 07:02:00,33.1,24.4,30.22,WNW,290,0.0,0.0,70,0.00,,,0.00,LWC V2.11 B50,2013-03-09 12:02:00,
2013-03-09 07:07:00,33.4,24.7,30.23,WNW,297,0.0,7.0,70,0.00,,,0.00,LWC V2.11 B50,2013-03-09 12:07:00,
2013-03-09 07:12:00,33.7,24.6,30.22,West,281,3.0,4.0,69,0.00,,,0.00,LWC V2.11 B50,2013-03-09 12:12:00,
2013-03-09 07:17:00,34.0,24.9,30.22,WNW,283,0.0,0.0,69,0.00,,,0.00,LWC V2.11 B50,2013-03-09 12:17:00,
2013-03-09 07:22:00,34.4,25.0,30.23,WNW,293,0.0,7.0,68,0.00,,,0.00,LWC V2.11 B50,2013-03-09 12:22:00,
2013-03-09 07:27:00,34.8,25.0,30.23,WNW,294,0.0,4.0,67,0.00,,,0.00,LWC V2.11 B50,2013-03-09 12:27:00,
2013-03-09 07:32:00,35.2,25.4,30.23,WNW,298,0.0,3.0,67,0.00,,,0.00,LWC V2.11 B50,2013-03-09 12:32:00,
2013-03-09 07:37:00,35.6,25.4,30.23,WNW,290,0.0,1.0,66,0.00,,,0.00,LWC V2.11 B50,2013-03-09 12:37:00,
2013-03-09 07:42:00,36.0,25.4,30.23,WNW,291,0.0,1.0,65,0.00,,,0.00,LWC V2.11 B50,2013-03-09 12:42:00,
2013-03-09 07:47:00,36.4,25.8,30.23,WNW,292,3.0,3.0,65,0.00,,,0.00,LWC V2.11 B50,2013-03-09 12:47:00,
2013-03-09 07:52:00,36.8,26.2,30.24,WNW,298,4.0,4.0,65,0.00,,,0.00,LWC V2.11 B50,2013-03-09 12:52:00,
2013-03-09 07:57:00,37.1,26.1,30.23,WNW,290,0.0,0.0,64,0.00,,,0.00,LWC V2.11 B50,2013-03-09 12:57:00,
2013-03-09 08:02:00,37.5,26.1,30.24,WNW,288,4.0,7.0,63,0.00,,,0.00,LWC V2.11 B50,2013-03-09 13:02:00,
2013-03-09 08:07:00,37.8,26.0,30.24,WNW,294,2.0,2.0,62,0.00,,,0.00,LWC V2.11 B50,2013-03-09 13:07:00,
2013-03-09 08:12:00,37.9,26.1,30.24,WNW,294,0.0,5.0,62,0.00,,,0.00,LWC V2.11 B50,2013-03-09 13:12:00,
2013-03-09 08:17:00,38.2,26.3,30.24,NW,304,0.0,0.0,62,0.00,,,0.00,LWC V2.11 B50,2013-03-09 13:17:00,
2013-03-09 08:22:00,38.4,26.1,30.24,WNW,302,1.0,7.0,61,0.00,,,0.00,LWC V2.11 B50,2013-03-09 13:22:00,
2013-03-09 08:27:00,38.5,25.8,30.24,WNW,294,3.0,7.0,60,0.00,,,0.00,LWC V2.11 B50,2013-03-09 13:27:00,
2013-03-09 08:32:00,38.7,26.0,30.24,WNW,292,6.0,12.0,60,0.00,,,0.00,LWC V2.11 B50,2013-03-09 13:32:00,
2013-03-09 08:37:00,38.9,26.6,30.24,WNW,294,6.0,6.0,61,0.00,,,0.00,LWC V2.11 B50,2013-03-09 13:37:00,
2013-03-09 08:42:00,39.3,26.2,30.24,WNW,298,0.0,7.0,59,0.00,,,0.00,LWC V2.11 B50,2013-03-09 13:42:00,
2013-03-09 08:47:00,39.5,26.4,30.24,WNW,292,3.0,10.0,59,0.00,,,0.00,LWC V2.11 B50,2013-03-09 13:47:00,
2013-03-09 08:52:00,39.8,26.7,30.24,NW,309,4.0,6.0,59,0.00,,,0.00,LWC V2.11 B50,2013-03-09 13:52:00,
2013-03-09 08:57:00,40.1,26.9,30.24,WNW,295,3.0,6.0,59,0.00,,,0.00,LWC V2.11 B50,2013-03-09 13:57:00,
2013-03-09 09:02:00,40.5,26.9,30.24,WNW,298,0.0,4.0,58,0.00,,,0.00,LWC V2.11 B50,2013-03-09 14:02:00,
2013-03-09 09:07:00,41.0,26.9,30.24,WNW,287,0.0,7.0,57,0.00,,,0.00,LWC V2.11 B50,2013-03-09 14:07:00,
2013-03-09 09:12:00,41.6,27.5,30.24,WNW,288,0.0,0.0,57,0.00,,,0.00,LWC V2.11 B50,2013-03-09 14:12:00,
2013-03-09 09:17:00,42.4,27.8,30.24,NNE,30,0.0,5.0,56,0.00,,,0.00,LWC V2.11 B50,2013-03-09 14:17:00,
2013-03-09 09:22:00,42.7,27.7,30.25,NNW,336,0.0,3.0,55,0.00,,,0.00,LWC V2.11 B50,2013-03-09 14:22:00,
2013-03-09 09:27:00,42.7,27.7,30.25,WNW,294,1.0,3.0,55,0.00,,,0.00,LWC V2.11 B50,2013-03-09 14:27:00,
2013-03-09 09:32:00,42.7,27.2,30.25,WNW,287,0.0,10.0,54,0.00,,,0.00,LWC V2.11 B50,2013-03-09 14:32:00,
2013-03-09 09:37:00,42.7,27.7,30.25,North,11,0.0,13.0,55,0.00,,,0.00,LWC V2.11 B50,2013-03-09 14:37:00,
2013-03-09 09:42:00,43.3,28.2,30.25,West,275,0.0,3.0,55,0.00,,,0.00,LWC V2.11 B50,2013-03-09 14:42:00,
2013-03-09 09:47:00,43.9,27.9,30.24,NNE,27,0.0,1.0,53,0.00,,,0.00,LWC V2.11 B50,2013-03-09 14:47:00,
2013-03-09 09:52:00,44.3,28.3,30.25,WNW,290,6.0,9.0,53,0.00,,,0.00,LWC V2.11 B50,2013-03-09 14:52:00,
2013-03-09 09:57:00,44.3,27.8,30.25,WNW,291,3.0,9.0,52,0.00,,,0.00,LWC V2.11 B50,2013-03-09 14:57:00,
2013-03-09 10:02:00,44.6,29.0,30.25,NW,306,0.0,5.0,54,0.00,,,0.00,LWC V2.11 B50,2013-03-09 15:02:00,
2013-03-09 10:07:00,44.9,28.4,30.24,West,273,0.0,11.0,52,0.00,,,0.00,LWC V2.11 B50,2013-03-09 15:07:00,
2013-03-09 10:12:00,45.4,28.8,30.25,WNW,288,0.0,7.0,52,0.00,,,0.00,LWC V2.11 B50,2013-03-09 15:12:00,
2013-03-09 10:17:00,45.7,28.1,30.25,NW,304,2.0,10.0,50,0.00,,,0.00,LWC V2.11 B50,2013-03-09 15:17:00,
2013-03-09 10:22:00,46.3,29.6,30.25,NW,306,6.0,6.0,52,0.00,,,0.00,LWC V2.11 B50,2013-03-09 15:22:00,
2013-03-09 10:27:00,46.5,29.8,30.25,West,280,0.0,3.0,52,0.00,,,0.00,LWC V2.11 B50,2013-03-09 15:27:00,
2013-03-09 10:32:00,46.9,28.8,30.24,WNW,295,1.0,7.0,49,0.00,,,0.00,LWC V2.11 B50,2013-03-09 15:32:00,
2013-03-09 10:37:00,46.7,28.6,30.24,North,355,8.0,10.0,49,0.00,,,0.00,LWC V2.11 B50,2013-03-09 15:37:00,
2013-03-09 10:42:00,46.8,29.2,30.24,NNE,19,0.0,0.0,50,0.00,,,0.00,LWC V2.11 B50,2013-03-09 15:42:00,
2013-03-09 10:47:00,47.5,29.8,30.24,WNW,288,0.0,5.0,50,0.00,,,0.00,LWC V2.11 B50,2013-03-09 15:47:00,
2013-03-09 10:52:00,47.9,30.2,30.24,WNW,293,4.0,4.0,50,0.00,,,0.00,LWC V2.11 B50,2013-03-09 15:52:00,
2013-03-09 10:57:00,48.6,29.3,30.24,WNW,284,0.0,6.0,47,0.00,,,0.00,LWC V2.11 B50,2013-03-09 15:57:00,
2013-03-09 11:02:00,48.9,29.6,30.24,WNW,287,3.0,9.0,47,0.00,,,0.00,LWC V2.11 B50,2013-03-09 16:02:00,
2013-03-09 11:07:00,48.9,29.0,30.24,WNW,294,5.0,7.0,46,0.00,,,0.00,LWC V2.11 B50,2013-03-09 16:07:00,
2013-03-09 11:12:00,49.1,29.2,30.25,NE,49,0.0,3.0,46,0.00,,,0.00,LWC V2.11 B50,2013-03-09 16:12:00,
2013-03-09 11:17:00,49.9,28.9,30.24,WNW,293,0.0,5.0,44,0.00,,,0.00,LWC V2.11 B50,2013-03-09 16:17:00,
2013-03-09 11:22:00,50.3,29.8,30.24,NW,306,0.0,4.0,45,0.00,,,0.00,LWC V2.11 B50,2013-03-09 16:22:00,
2013-03-09 11:27:00,50.6,28.9,30.25,WNW,294,0.0,13.0,43,0.00,,,0.00,LWC V2.11 B50,2013-03-09 16:27:00,
2013-03-09 11:32:00,50.8,29.7,30.24,WNW,283,0.0,3.0,44,0.00,,,0.00,LWC V2.11 B50,2013-03-09 16:32:00,
2013-03-09 11:37:00,51.1,28.8,30.24,East,83,0.0,10.0,42,0.00,,,0.00,LWC V2.11 B50,2013-03-09 16:37:00,
2013-03-09 11:42:00,51.5,30.9,30.24,NW,308,2.0,5.0,45,0.00,,,0.00,LWC V2.11 B50,2013-03-09 16:42:00,
2013-03-09 11:47:00,52.0,30.8,30.24,WNW,302,0.0,6.0,44,0.00,,,0.00,LWC V2.11 B50,2013-03-09 16:47:00,
2013-03-09 11:52:00,52.5,30.7,30.23,WNW,292,0.0,0.0,43,0.00,,,0.00,LWC V2.11 B50,2013-03-09 16:52:00,
2013-03-09 11:57:00,52.4,30.0,30.23,North,0,0.0,0.0,42,0.00,,,0.00,LWC V2.11 B50,2013-03-09 16:57:00,
2013-03-09 12:02:00,53.0,28.1,30.23,WNW,288,2.0,7.0,38,0.00,,,0.00,LWC V2.11 B50,2013-03-09 17:02:00,
2013-03-09 12:07:00,53.3,29.0,30.22,West,267,0.0,0.0,39,0.00,,,0.00,LWC V2.11 B50,2013-03-09 17:07:00,
2013-03-09 12:12:00,53.6,28.6,30.22,ENE,57,0.0,3.0,38,0.00,,,0.00,LWC V2.11 B50,2013-03-09 17:12:00,
2013-03-09 12:17:00,54.1,30.3,30.22,NW,306,0.0,1.0,40,0.00,,,0.00,LWC V2.11 B50,2013-03-09 17:17:00,
2013-03-09 12:22:00,54.5,29.4,30.22,NNW,338,0.0,0.0,38,0.00,,,0.00,LWC V2.11 B50,2013-03-09 17:22:00,
2013-03-09 12:27:00,54.4,28.0,30.21,WNW,296,0.0,3.0,36,0.00,,,0.00,LWC V2.11 B50,2013-03-09 17:27:00,
2013-03-09 12:32:00,54.4,28.7,30.21,WNW,299,0.0,5.0,37,0.00,,,0.00,LWC V2.11 B50,2013-03-09 17:32:00,
2013-03-09 12:37:00,54.6,27.5,30.21,WNW,290,0.0,11.0,35,0.00,,,0.00,LWC V2.11 B50,2013-03-09 17:37:00,
2013-03-09 12:42:00,55.0,28.5,30.20,WNW,296,0.0,4.0,36,0.00,,,0.00,LWC V2.11 B50,2013-03-09 17:42:00,
2013-03-09 12:47:00,55.4,29.6,30.20,WNW,284,0.0,4.0,37,0.00,,,0.00,LWC V2.11 B50,2013-03-09 17:47:00,
2013-03-09 12:52:00,55.9,27.9,30.20,NNW,337,0.0,0.0,34,0.00,,,0.00,LWC V2.11 B50,2013-03-09 17:52:00,
2013-03-09 12:57:00,56.4,29.8,30.20,NE,44,0.0,0.0,36,0.00,,,0.00,LWC V2.11 B50,2013-03-09 17:57:00,
2013-03-09 13:02:00,56.9,29.5,30.20,WNW,299,3.0,7.0,35,0.00,,,0.00,LWC V2.11 B50,2013-03-09 18:02:00,
2013-03-09 13:07:00,56.8,28.0,30.19,NW,304,7.0,7.0,33,0.00,,,0.00,LWC V2.11 B50,2013-03-09 18:07:00,
2013-03-09 13:12:00,56.7,28.6,30.19,WNW,292,3.0,7.0,34,0.00,,,0.00,LWC V2.11 B50,2013-03-09 18:12:00,
2013-03-09 13:17:00,56.8,28.0,30.19,WNW,284,3.0,13.0,33,0.00,,,0.00,LWC V2.11 B50,2013-03-09 18:17:00,
2013-03-09 13:22:00,56.9,27.4,30.19,WNW,292,0.0,0.0,32,0.00,,,0.00,LWC V2.11 B50,2013-03-09 18:22:00,
2013-03-09 13:27:00,57.2,26.8,30.19,NNE,29,0.0,3.0,31,0.00,,,0.00,LWC V2.11 B50,2013-03-09 18:27:00,
2013-03-09 13:32:00,57.6,28.7,30.18,East,82,0.0,3.0,33,0.00,,,0.00,LWC V2.11 B50,2013-03-09 18:32:00,
2013-03-09 13:37:00,58.1,28.4,30.18,ENE,59,0.0,2.0,32,0.00,,,0.00,LWC V2.11 B50,2013-03-09 18:37:00,
2013-03-09 13:42:00,58.5,28.7,30.18,North,5,0.0,0.0,32,0.00,,,0.00,LWC V2.11 B50,2013-03-09 18:42:00,
2013-03-09 13:47:00,58.8,27.4,30.18,NE,56,0.0,0.0,30,0.00,,,0.00,LWC V2.11 B50,2013-03-09 18:47:00,
2013-03-09 13:52:00,58.9,26.7,30.18,NE,40,0.0,6.0,29,0.00,,,0.00,LWC V2.11 B50,2013-03-09 18:52:00,
2013-03-09 13:57:00,59.1,26.9,30.17,West,280,0.0,3.0,29,0.00,,,0.00,LWC V2.11 B50,2013-03-09 18:57:00,
2013-03-09 14:02:00,59.1,26.0,30.17,NE,37,0.0,3.0,28,0.00,,,0.00,LWC V2.11 B50,2013-03-09 19:02:00,
2013-03-09 14:07:00,59.3,27.1,30.17,East,81,0.0,1.0,29,0.00,,,0.00,LWC V2.11 B50,2013-03-09 19:07:00,
2013-03-09 14:12:00,59.4,27.1,30.17,NW,324,0.0,0.0,29,0.00,,,0.00,LWC V2.11 B50,2013-03-09 19:12:00,
2013-03-09 14:17:00,59.4,27.1,30.17,NE,40,2.0,5.0,29,0.00,,,0.00,LWC V2.11 B50,2013-03-09 19:17:00,
2013-03-09 14:22:00,59.4,24.5,30.18,NE,45,0.0,6.0,26,0.00,,,0.00,LWC V2.11 B50,2013-03-09 19:22:00,
2013-03-09 14:27:00,59.3,25.3,30.17,NNE,32,0.0,9.0,27,0.00,,,0.00,LWC V2.11 B50,2013-03-09 19:27:00,
2013-03-09 14:32:00,59.4,24.5,30.17,NW,311,0.0,4.0,26,0.00,,,0.00,LWC V2.11 B50,2013-03-09 19:32:00,
2013-03-09 14:37:00,59.4,26.3,30.17,ENE,59,0.0,0.0,28,0.00,,,0.00,LWC V2.11 B50,2013-03-09 19:37:00,
2013-03-09 14:42:00,59.7,26.5,30.18,WNW,302,0.0,5.0,28,0.00,,,0.00,LWC V2.11 B50,2013-03-09 19:42:00,
2013-03-09 14:47:00,59.7,25.7,30.18,WNW,298,1.0,1.0,27,0.00,,,0.00,LWC V2.11 B50,2013-03-09 19:47:00,
2013-03-09 14:52:00,59.7,25.7,30.18,NE,51,0.0,0.0,27,0.00,,,0.00,LWC V2.11 B50,2013-03-09 19:52:00,
2013-03-09 14:57:00,59.8,26.6,30.18,ENE,74,0.0,2.0,28,0.00,,,0.00,LWC V2.11 B50,2013-03-09 19:57:00,
2013-03-09 15:02:00,59.9,27.6,30.18,SE,126,0.0,6.0,29,0.00,,,0.00,LWC V2.11 B50,2013-03-09 20:02:00,
2013-03-09 15:07:00,59.6,25.6,30.18,NNE,24,5.0,5.0,27,0.00,,,0.00,LWC V2.11 B50,2013-03-09 20:07:00,
2013-03-09 15:12:00,59.4,25.4,30.18,NE,50,3.0,7.0,27,0.00,,,0.00,LWC V2.11 B50,2013-03-09 20:12:00,
2013-03-09 15:17:00,59.6,27.3,30.18,ESE,121,2.0,5.0,29,0.00,,,0.00,LWC V2.11 B50,2013-03-09 20:17:00,
2013-03-09 15:22:00,59.8,25.8,30.18,NE,49,0.0,7.0,27,0.00,,,0.00,LWC V2.11 B50,2013-03-09 20:22:00,
2013-03-09 15:27:00,59.8,26.6,30.18,NE,42,0.0,0.0,28,0.00,,,0.00,LWC V2.11 B50,2013-03-09 20:27:00,
2013-03-09 15:32:00,59.8,25.8,30.18,NE,42,0.0,0.0,27,0.00,,,0.00,LWC V2.11 B50,2013-03-09 20:32:00,
2013-03-09 15:37:00,59.9,25.8,30.18,North,11,0.0,0.0,27,0.00,,,0.00,LWC V2.11 B50,2013-03-09 20:37:00,
2013-03-09 15:42:00,59.8,24.9,30.18,NE,55,0.0,0.0,26,0.00,,,0.00,LWC V2.11 B50,2013-03-09 20:42:00,
2013-03-09 15:47:00,59.5,24.6,30.18,NE,39,0.0,0.0,26,0.00,,,0.00,LWC V2.11 B50,2013-03-09 20:47:00,
2013-03-09 15:52:00,59.3,24.4,30.18,WNW,295,0.0,2.0,26,0.00,,,0.00,LWC V2.11 B50,2013-03-09 20:52:00,
2013-03-09 15:57:00,59.0,24.2,30.18,NE,51,4.0,6.0,26,0.00,,,0.00,LWC V2.11 B50,2013-03-09 20:57:00,
2013-03-09 16:02:00,58.8,23.1,30.18,NNE,13,0.0,0.0,25,0.00,,,0.00,LWC V2.11 B50,2013-03-09 21:02:00,
2013-03-09 16:07:00,58.7,23.9,30.18,NNE,32,3.0,6.0,26,0.00,,,0.00,LWC V2.11 B50,2013-03-09 21:07:00,
2013-03-09 16:12:00,58.5,21.8,30.18,NE,41,0.0,10.0,24,0.00,,,0.00,LWC V2.11 B50,2013-03-09 21:12:00,
2013-03-09 16:17:00,58.4,22.7,30.19,NNE,13,0.0,10.0,25,0.00,,,0.00,LWC V2.11 B50,2013-03-09 21:17:00,
2013-03-09 16:22:00,58.2,22.6,30.19,NNE,31,0.0,3.0,25,0.00,,,0.00,LWC V2.11 B50,2013-03-09 21:22:00,
2013-03-09 16:27:00,58.1,22.5,30.19,NE,45,2.0,6.0,25,0.00,,,0.00,LWC V2.11 B50,2013-03-09 21:27:00,
2013-03-09 16:32:00,58.0,22.4,30.19,NNE,15,0.0,2.0,25,0.00,,,0.00,LWC V2.11 B50,2013-03-09 21:32:00,
2013-03-09 16:37:00,58.0,21.4,30.19,NW,321,0.0,0.0,24,0.00,,,0.00,LWC V2.11 B50,2013-03-09 21:37:00,
2013-03-09 16:42:00,57.9,21.3,30.19,NNE,32,0.0,5.0,24,0.00,,,0.00,LWC V2.11 B50,2013-03-09 21:42:00,
2013-03-09 16:47:00,57.8,22.2,30.19,WNW,301,0.0,0.0,25,0.00,,,0.00,LWC V2.11 B50,2013-03-09 21:47:00,
2013-03-09 16:52:00,57.7,22.1,30.19,NE,36,0.0,0.0,25,0.00,,,0.00,LWC V2.11 B50,2013-03-09 21:52:00,
2013-03-09 16:57:00,57.5,22.0,30.19,NE,38,0.0,6.0,25,0.00,,,0.00,LWC V2.11 B50,2013-03-09 21:57:00,
2013-03-09 17:02:00,57.4,21.9,30.19,North,355,0.0,0.0,25,0.00,,,0.00,LWC V2.11 B50,2013-03-09 22:02:00,
2013-03-09 17:07:00,57.3,22.7,30.19,NNE,30,0.0,0.0,26,0.00,,,0.00,LWC V2.11 B50,2013-03-09 22:07:00,
2013-03-09 17:12:00,57.2,22.6,30.19,NE,49,0.0,4.0,26,0.00,,,0.00,LWC V2.11 B50,2013-03-09 22:12:00,
2013-03-09 17:17:00,57.1,22.5,30.19,NE,49,0.0,3.0,26,0.00,,,0.00,LWC V2.11 B50,2013-03-09 22:17:00,
2013-03-09 17:22:00,57.0,23.4,30.19,NNE,33,0.0,0.0,27,0.00,,,0.00,LWC V2.11 B50,2013-03-09 22:22:00,
2013-03-09 17:27:00,56.8,23.2,30.19,North,0,0.0,0.0,27,0.00,,,0.00,LWC V2.11 B50,2013-03-09 22:27:00,
2013-03-09 17:32:00,56.6,22.1,30.19,North,0,0.0,0.0,26,0.00,,,0.00,LWC V2.11 B50,2013-03-09 22:32:00,
2013-03-09 17:37:00,56.5,22.0,30.20,WNW,303,0.0,0.0,26,0.00,,,0.00,LWC V2.11 B50,2013-03-09 22:37:00,
2013-03-09 17:42:00,56.3,20.9,30.20,WNW,303,0.0,0.0,25,0.00,,,0.00,LWC V2.11 B50,2013-03-09 22:42:00,
2013-03-09 17:47:00,56.1,20.8,30.20,NNW,331,0.0,0.0,25,0.00,,,0.00,LWC V2.11 B50,2013-03-09 22:47:00,
2013-03-09 17:52:00,55.9,21.5,30.20,NNW,330,0.0,0.0,26,0.00,,,0.00,LWC V2.11 B50,2013-03-09 22:52:00,
2013-03-09 17:57:00,55.5,21.2,30.21,NNW,330,0.0,0.0,26,0.00,,,0.00,LWC V2.11 B50,2013-03-09 22:57:00,
2013-03-09 18:02:00,55.1,20.8,30.21,NNW,331,0.0,0.0,26,0.00,,,0.00,LWC V2.11 B50,2013-03-09 23:02:00,
2013-03-09 18:07:00,54.5,21.2,30.21,NNW,331,0.0,0.0,27,0.00,,,0.00,LWC V2.11 B50,2013-03-09 23:07:00,
2013-03-09 18:12:00,53.9,20.7,30.21,NNW,331,0.0,0.0,27,0.00,,,0.00,LWC V2.11 B50,2013-03-09 23:12:00,
2013-03-09 18:17:00,53.2,21.0,30.22,NNW,330,0.0,0.0,28,0.00,,,0.00,LWC V2.11 B50,2013-03-09 23:17:00,
2013-03-09 18:22:00,52.4,20.3,30.21,NNW,331,0.0,0.0,28,0.00,,,0.00,LWC V2.11 B50,2013-03-09 23:22:00,
2013-03-09 18:27:00,51.7,21.3,30.21,NNW,331,0.0,0.0,30,0.00,,,0.00,LWC V2.11 B50,2013-03-09 23:27:00,
2013-03-09 18:32:00,50.9,21.4,30.21,NNW,330,0.0,0.0,31,0.00,,,0.00,LWC V2.11 B50,2013-03-09 23:32:00,
2013-03-09 18:37:00,50.2,21.5,30.22,NNW,331,0.0,0.0,32,0.00,,,0.00,LWC V2.11 B50,2013-03-09 23:37:00,
2013-03-09 18:42:00,49.5,21.6,30.22,NNW,331,0.0,0.0,33,0.00,,,0.00,LWC V2.11 B50,2013-03-09 23:42:00,
2013-03-09 18:47:00,48.8,21.7,30.22,NNW,331,0.0,0.0,34,0.00,,,0.00,LWC V2.11 B50,2013-03-09 23:47:00,
2013-03-09 18:52:00,48.1,21.8,30.22,NNW,331,0.0,0.0,35,0.00,,,0.00,LWC V2.11 B50,2013-03-09 23:52:00,
2013-03-09 18:57:00,47.3,21.7,30.22,NNW,330,0.0,0.0,36,0.00,,,0.00,LWC V2.11 B50,2013-03-09 23:57:00,
2013-03-09 19:02:00,46.7,21.8,30.22,NNW,331,0.0,0.0,37,0.00,,,0.00,LWC V2.11 B50,2013-03-10 00:02:00,
2013-03-09 19:07:00,46.2,21.4,30.22,NNW,331,0.0,0.0,37,0.00,,,0.00,LWC V2.11 B50,2013-03-10 00:07:00,
2013-03-09 19:12:00,45.7,20.9,30.22,NNW,331,0.0,0.0,37,0.00,,,0.00,LWC V2.11 B50,2013-03-10 00:12:00,
2013-03-09 19:17:00,45.2,20.5,30.22,NNW,331,0.0,0.0,37,0.00,,,0.00,LWC V2.11 B50,2013-03-10 00:17:00,
2013-03-09 19:22:00,44.8,21.4,30.21,NNW,331,0.0,0.0,39,0.00,,,0.00,LWC V2.11 B50,2013-03-10 00:22:00,
2013-03-09 19:27:00,44.3,22.7,30.21,NNW,331,0.0,0.0,42,0.00,,,0.00,LWC V2.11 B50,2013-03-10 00:27:00,
2013-03-09 19:32:00,43.8,22.8,30.22,NNW,330,0.0,0.0,43,0.00,,,0.00,LWC V2.11 B50,2013-03-10 00:32:00,
2013-03-09 19:37:00,43.2,23.3,30.22,NNW,331,0.0,0.0,45,0.00,,,0.00,LWC V2.11 B50,2013-03-10 00:37:00,
2013-03-09 19:42:00,42.7,23.9,30.22,NNW,330,0.0,0.0,47,0.00,,,0.00,LWC V2.11 B50,2013-03-10 00:42:00,
2013-03-09 19:47:00,42.1,23.8,30.22,NNW,330,0.0,0.0,48,0.00,,,0.00,LWC V2.11 B50,2013-03-10 00:47:00,
2013-03-09 19:52:00,41.6,23.9,30.22,NNW,331,0.0,0.0,49,0.00,,,0.00,LWC V2.11 B50,2013-03-10 00:52:00,
2013-03-09 19:57:00,41.2,24.0,30.23,NNW,331,0.0,0.0,50,0.00,,,0.00,LWC V2.11 B50,2013-03-10 00:57:00,
2013-03-09 20:02:00,40.9,24.2,30.23,NNW,331,0.0,0.0,51,0.00,,,0.00,LWC V2.11 B50,2013-03-10 01:02:00,
2013-03-09 20:07:00,40.5,22.9,30.23,NNW,330,0.0,0.0,49,0.00,,,0.00,LWC V2.11 B50,2013-03-10 01:07:00,
2013-03-09 20:12:00,40.5,22.4,30.22,NNW,331,0.0,0.0,48,0.00,,,0.00,LWC V2.11 B50,2013-03-10 01:12:00,
2013-03-09 20:17:00,40.4,21.8,30.22,NNW,331,0.0,0.0,47,0.00,,,0.00,LWC V2.11 B50,2013-03-10 01:17:00,
2013-03-09 20:22:00,40.2,22.1,30.22,NNW,331,0.0,0.0,48,0.00,,,0.00,LWC V2.11 B50,2013-03-10 01:22:00,
2013-03-09 20:27:00,40.2,22.1,30.22,NNW,331,0.0,0.0,48,0.00,,,0.00,LWC V2.11 B50,2013-03-10 01:27:00,
2013-03-09 20:32:00,40.0,21.9,30.22,NNW,331,0.0,0.0,48,0.00,,,0.00,LWC V2.11 B50,2013-03-10 01:32:00,
2013-03-09 20:37:00,39.8,23.2,30.23,NNW,331,0.0,0.0,51,0.00,,,0.00,LWC V2.11 B50,2013-03-10 01:37:00,
2013-03-09 20:42:00,39.4,23.3,30.23,NNW,331,0.0,0.0,52,0.00,,,0.00,LWC V2.11 B50,2013-03-10 01:42:00,
2013-03-09 20:47:00,39.1,23.4,30.23,NNW,331,0.0,0.0,53,0.00,,,0.00,LWC V2.11 B50,2013-03-10 01:47:00,
2013-03-09 20:52:00,38.7,22.6,30.23,NNW,331,0.0,0.0,52,0.00,,,0.00,LWC V2.11 B50,2013-03-10 01:52:00,
2013-03-09 20:57:00,38.4,22.8,30.23,NNW,331,0.0,0.0,53,0.00,,,0.00,LWC V2.11 B50,2013-03-10 01:57:00,
2013-03-09 21:02:00,38.2,23.9,30.23,NNW,330,0.0,0.0,56,0.00,,,0.00,LWC V2.11 B50,2013-03-10 02:02:00,
2013-03-09 21:07:00,37.8,24.0,30.23,NNW,331,0.0,0.0,57,0.00,,,0.00,LWC V2.11 B50,2013-03-10 02:07:00,
2013-03-09 21:12:00,37.4,24.0,30.23,NNW,331,0.0,0.0,58,0.00,,,0.00,LWC V2.11 B50,2013-03-10 02:12:00,
2013-03-09 21:17:00,37.0,23.6,30.24,NNW,330,0.0,0.0,58,0.00,,,0.00,LWC V2.11 B50,2013-03-10 02:17:00,
2013-03-09 21:22:00,37.0,24.0,30.24,NNW,330,0.0,0.0,59,0.00,,,0.00,LWC V2.11 B50,2013-03-10 02:22:00,
2013-03-09 21:27:00,36.9,23.9,30.24,NNW,331,0.0,0.0,59,0.00,,,0.00,LWC V2.11 B50,2013-03-10 02:27:00,
2013-03-09 21:32:00,36.7,23.7,30.24,NNW,331,0.0,0.0,59,0.00,,,0.00,LWC V2.11 B50,2013-03-10 02:32:00,
2013-03-09 21:37:00,36.6,22.8,30.25,NNW,331,0.0,0.0,57,0.00,,,0.00,LWC V2.11 B50,2013-03-10 02:37:00,
2013-03-09 21:39:00,36.6,22.4,30.25,NNW,331,0.0,0.0,56,0.00,,,0.00,LWC V2.11 B50,2013-03-10 02:39:00,
2013-03-09 21:44:00,36.5,22.3,30.25,NNW,330,0.0,0.0,56,0.00,,,0.00,LWC V2.11 B50,2013-03-10 02:44:00,
2013-03-09 21:49:00,36.5,22.3,30.25,NNW,331,0.0,0.0,56,0.00,,,0.00,LWC V2.11 B50,2013-03-10 02:49:00,
2013-03-09 21:54:00,36.4,22.6,30.25,NNW,331,0.0,0.0,57,0.00,,,0.00,LWC V2.11 B50,2013-03-10 02:54:00,
2013-03-09 21:59:00,36.2,23.3,30.25,NNW,330,0.0,0.0,59,0.00,,,0.00,LWC V2.11 B50,2013-03-10 02:59:00,
2013-03-09 22:04:00,36.0,23.5,30.25,NNW,331,0.0,0.0,60,0.00,,,0.00,LWC V2.11 B50,2013-03-10 03:04:00,
2013-03-09 22:09:00,35.8,22.9,30.25,NNW,331,0.0,0.0,59,0.00,,,0.00,LWC V2.11 B50,2013-03-10 03:09:00,
2013-03-09 22:14:00,35.5,22.6,30.25,NNW,331,0.0,0.0,59,0.00,,,0.00,LWC V2.11 B50,2013-03-10 03:14:00,
2013-03-09 22:19:00,35.2,21.9,30.25,NNW,330,0.0,0.0,58,0.00,,,0.00,LWC V2.11 B50,2013-03-10 03:19:00,
2013-03-09 22:24:00,34.9,21.6,30.24,NNW,331,0.0,0.0,58,0.00,,,0.00,LWC V2.11 B50,2013-03-10 03:24:00,
2013-03-09 22:29:00,34.7,21.9,30.24,NNW,331,0.0,0.0,59,0.00,,,0.00,LWC V2.11 B50,2013-03-10 03:29:00,
2013-03-09 22:34:00,34.5,22.1,30.24,NNW,331,0.0,0.0,60,0.00,,,0.00,LWC V2.11 B50,2013-03-10 03:34:00,
2013-03-09 22:39:00,34.3,22.7,30.25,NNW,331,0.0,0.0,62,0.00,,,0.00,LWC V2.11 B50,2013-03-10 03:39:00,
2013-03-09 22:44:00,34.1,22.5,30.25,NNW,330,0.0,0.0,62,0.00,,,0.00,LWC V2.11 B50,2013-03-10 03:44:00,
2013-03-09 22:49:00,33.9,22.3,30.25,NNW,331,0.0,0.0,62,0.00,,,0.00,LWC V2.11 B50,2013-03-10 03:49:00,
2013-03-09 22:54:00,33.8,22.2,30.25,NNW,330,0.0,0.0,62,0.00,,,0.00,LWC V2.11 B50,2013-03-10 03:54:00,
2013-03-09 22:59:00,33.5,23.0,30.25,NNW,330,0.0,0.0,65,0.00,,,0.00,LWC V2.11 B50,2013-03-10 03:59:00,
2013-03-09 23:04:00,33.3,22.8,30.25,NNW,331,0.0,0.0,65,0.00,,,0.00,LWC V2.11 B50,2013-03-10 04:04:00,
2013-03-09 23:09:00,33.3,22.5,30.26,NNW,331,0.0,0.0,64,0.00,,,0.00,LWC V2.11 B50,2013-03-10 04:09:00,
2013-03-09 23:14:00,33.2,22.4,30.26,NNW,330,0.0,0.0,64,0.00,,,0.00,LWC V2.11 B50,2013-03-10 04:14:00,
2013-03-09 23:19:00,33.1,21.9,30.26,NNW,331,0.0,0.0,63,0.00,,,0.00,LWC V2.11 B50,2013-03-10 04:19:00,
2013-03-09 23:24:00,33.0,21.4,30.26,NNW,331,0.0,0.0,62,0.00,,,0.00,LWC V2.11 B50,2013-03-10 04:24:00,
2013-03-09 23:29:00,33.0,21.8,30.26,NNW,331,0.0,0.0,63,0.00,,,0.00,LWC V2.11 B50,2013-03-10 04:29:00,
2013-03-09 23:34:00,33.1,22.3,30.26,NNW,330,0.0,0.0,64,0.00,,,0.00,LWC V2.11 B50,2013-03-10 04:34:00,
2013-03-09 23:39:00,33.0,21.8,30.26,NNW,330,0.0,0.0,63,0.00,,,0.00,LWC V2.11 B50,2013-03-10 04:39:00,
2013-03-09 23:44:00,32.8,22.0,30.26,NNW,331,0.0,0.0,64,0.00,,,0.00,LWC V2.11 B50,2013-03-10 04:44:00,
2013-03-09 23:49:00,32.6,21.8,30.27,NNW,331,0.0,0.0,64,0.00,,,0.00,LWC V2.11 B50,2013-03-10 04:49:00,
2013-03-09 23:54:00,32.7,21.5,30.27,NNW,331,0.0,0.0,63,0.00,,,0.00,LWC V2.11 B50,2013-03-10 04:54:00,
2013-03-09 23:59:00,32.6,21.8,30.27,NNW,331,0.0,0.0,64,0.00,,,0.00,LWC V2.11 B50,2013-03-10 04:59:00,